createdAt,value
2023-05-28T00:01:36.663Z,19.92
2023-05-28T00:04:04.110Z,20.00
2023-05-28T00:06:31.755Z,23.58
2023-05-28T00:08:58.849Z,22.23
2023-05-28T00:11:27.225Z,21.42
2023-05-28T00:13:54.617Z,20.90
2023-05-28T00:16:22.011Z,23.00
2023-05-28T00:18:49.168Z,23.40
2023-05-28T00:21:16.313Z,20.05
2023-05-28T00:23:44.164Z,20.55
2023-05-28T00:26:11.276Z,21.08
2023-05-28T00:28:38.836Z,18.88
2023-05-28T00:31:06.198Z,16.88
2023-05-28T00:33:33.399Z,17.25
2023-05-28T00:36:00.793Z,17.35
2023-05-28T00:38:28.192Z,16.23
2023-05-28T00:40:58.118Z,16.23
2023-05-28T00:43:25.761Z,15.65
2023-05-28T00:45:53.170Z,14.13
2023-05-28T00:48:21.030Z,16.48
2023-05-28T00:50:48.964Z,15.98
2023-05-28T00:53:16.398Z,15.90
2023-05-28T00:55:43.617Z,16.38
2023-05-28T00:58:12.670Z,16.83
2023-05-28T01:00:44.240Z,16.80
2023-05-28T01:03:11.628Z,19.42
2023-05-28T01:05:38.884Z,21.13
2023-05-28T01:08:08.040Z,21.02
2023-05-28T01:10:36.381Z,21.42
2023-05-28T01:13:06.682Z,21.90
2023-05-28T01:15:34.545Z,21.92
2023-05-28T01:18:02.871Z,25.40
2023-05-28T01:20:32.180Z,23.95
2023-05-28T01:23:08.318Z,25.63
2023-05-28T01:25:38.902Z,25.17
2023-05-28T01:28:15.676Z,24.58
2023-05-28T01:30:44.705Z,26.23
2023-05-28T01:33:12.541Z,24.63
2023-05-28T01:35:43.738Z,25.50
2023-05-28T01:38:13.492Z,25.08
2023-05-28T01:40:45.517Z,24.67
2023-05-28T01:43:14.426Z,21.52
2023-05-28T01:45:41.970Z,17.17
2023-05-28T01:48:10.052Z,16.65
2023-05-28T01:50:37.296Z,16.75
2023-05-28T01:53:05.122Z,17.92
2023-05-28T01:55:34.061Z,18.77
2023-05-28T01:58:01.237Z,16.98
2023-05-28T02:00:28.786Z,17.27
2023-05-28T02:02:55.986Z,16.90
2023-05-28T02:05:24.090Z,17.63
2023-05-28T02:07:51.320Z,16.25
2023-05-28T02:10:18.472Z,17.13
2023-05-28T02:12:45.785Z,16.05
2023-05-28T02:15:12.885Z,17.63
2023-05-28T02:17:40.134Z,16.10
2023-05-28T02:20:09.457Z,17.85
2023-05-28T02:22:36.802Z,16.00
2023-05-28T02:25:04.264Z,16.08
2023-05-28T02:27:33.238Z,17.25
2023-05-28T02:30:00.678Z,16.70
2023-05-28T02:32:27.950Z,17.15
2023-05-28T02:34:56.169Z,18.55
2023-05-28T02:37:26.439Z,16.00
2023-05-28T02:39:53.583Z,15.95
2023-05-28T02:42:20.900Z,16.23
2023-05-28T02:44:50.165Z,15.65
2023-05-28T02:47:20.958Z,15.10
2023-05-28T02:49:48.418Z,14.75
2023-05-28T02:52:17.068Z,14.75
2023-05-28T02:54:46.941Z,15.60
2023-05-28T02:57:15.691Z,15.13
2023-05-28T02:59:43.340Z,14.48
2023-05-28T03:02:10.518Z,14.45
2023-05-28T03:04:37.738Z,14.32
2023-05-28T03:07:06.714Z,14.95
2023-05-28T03:09:37.632Z,13.13
2023-05-28T03:12:05.092Z,14.23
2023-05-28T03:14:34.545Z,13.55
2023-05-28T03:17:01.877Z,15.48
2023-05-28T03:19:29.083Z,14.85
2023-05-28T03:21:57.009Z,15.35
2023-05-28T03:24:27.460Z,15.10
2023-05-28T03:26:56.827Z,13.98
2023-05-28T03:29:24.917Z,14.65
2023-05-28T03:32:00.647Z,13.15
2023-05-28T03:34:28.283Z,13.70
2023-05-28T03:36:55.474Z,14.20
2023-05-28T03:39:23.956Z,12.40
2023-05-28T03:41:53.045Z,15.10
2023-05-28T03:44:23.110Z,13.88
2023-05-28T03:46:50.773Z,13.77
2023-05-28T03:49:20.711Z,13.98
2023-05-28T03:51:47.921Z,14.40
2023-05-28T03:54:17.135Z,14.00
2023-05-28T03:56:46.370Z,13.32
2023-05-28T03:59:13.561Z,12.70
2023-05-28T04:01:40.819Z,12.95
2023-05-28T04:04:08.590Z,13.55
2023-05-28T04:06:36.279Z,13.10
2023-05-28T04:09:04.196Z,11.98
2023-05-28T04:11:31.856Z,12.45
2023-05-28T04:14:00.699Z,12.35
2023-05-28T04:16:28.710Z,12.85
2023-05-28T04:18:56.068Z,12.00
2023-05-28T04:21:23.469Z,12.00
2023-05-28T04:23:50.968Z,12.25
2023-05-28T04:26:18.340Z,13.45
2023-05-28T04:28:45.410Z,12.25
2023-05-28T04:31:12.479Z,11.82
2023-05-28T04:33:39.868Z,12.27
2023-05-28T04:36:09.389Z,13.07
2023-05-28T04:38:36.782Z,12.95
2023-05-28T04:41:06.173Z,13.20
2023-05-28T04:43:34.459Z,13.23
2023-05-28T04:46:04.671Z,12.20
2023-05-28T04:48:36.561Z,12.35
2023-05-28T04:51:07.815Z,11.10
2023-05-28T04:53:35.417Z,9.50
2023-05-28T04:56:04.913Z,8.45
2023-05-28T04:58:32.798Z,8.60
2023-05-28T05:01:01.223Z,8.55
2023-05-28T05:03:33.155Z,8.35
2023-05-28T05:06:01.686Z,8.50
2023-05-28T05:08:29.173Z,8.52
2023-05-28T05:10:56.358Z,7.53
2023-05-28T05:13:24.564Z,8.73
2023-05-28T05:15:52.616Z,8.68
2023-05-28T05:18:21.795Z,8.27
2023-05-28T05:20:48.871Z,7.65
2023-05-28T05:23:16.477Z,8.00
2023-05-28T05:25:48.230Z,11.75
2023-05-28T05:28:15.674Z,13.05
2023-05-28T05:30:44.092Z,13.55
2023-05-28T05:33:11.784Z,11.15
2023-05-28T05:35:57.252Z,10.30
2023-05-28T05:38:43.033Z,8.65
2023-05-28T05:41:34.494Z,7.82
2023-05-28T05:44:12.853Z,8.02
2023-05-28T05:46:40.098Z,7.50
2023-05-28T05:49:09.235Z,9.43
2023-05-28T05:51:36.955Z,17.42
2023-05-28T05:54:04.835Z,20.20
2023-05-28T05:56:32.167Z,18.63
2023-05-28T05:59:00.701Z,18.65
2023-05-28T06:01:27.885Z,17.80
2023-05-28T06:03:55.070Z,16.55
2023-05-28T06:06:41.444Z,17.25
2023-05-28T06:09:30.192Z,18.02
2023-05-28T06:12:04.260Z,18.08
2023-05-28T06:14:33.695Z,15.15
2023-05-28T06:17:01.034Z,14.32
2023-05-28T06:19:28.230Z,17.73
2023-05-28T06:21:56.856Z,16.77
2023-05-28T06:24:24.399Z,18.30
2023-05-28T06:26:52.169Z,16.73
2023-05-28T06:29:19.492Z,16.77
2023-05-28T06:31:47.290Z,15.20
2023-05-28T06:34:16.408Z,14.60
2023-05-28T06:36:44.605Z,16.08
2023-05-28T06:39:12.016Z,17.15
2023-05-28T06:41:42.589Z,15.88
2023-05-28T06:44:19.089Z,16.48
2023-05-28T06:46:54.926Z,17.08
2023-05-28T06:49:23.323Z,15.88
2023-05-28T06:51:50.776Z,15.27
2023-05-28T06:54:18.238Z,14.32
2023-05-28T06:56:45.702Z,15.30
2023-05-28T06:59:32.104Z,11.13
2023-05-28T07:02:23.300Z,12.63
2023-05-28T07:05:05.927Z,13.15
2023-05-28T07:07:35.088Z,13.40
2023-05-28T07:10:02.329Z,13.13
2023-05-28T07:12:31.990Z,12.02
2023-05-28T07:15:00.016Z,11.27
2023-05-28T07:17:29.014Z,11.85
2023-05-28T07:19:58.200Z,11.18
2023-05-28T07:22:48.925Z,11.10
2023-05-28T07:25:16.354Z,12.00
2023-05-28T07:27:44.006Z,11.30
2023-05-28T07:30:12.338Z,11.50
2023-05-28T07:32:39.569Z,11.27
2023-05-28T07:35:07.790Z,11.38
2023-05-28T07:44:12.776Z,12.05
2023-05-28T07:46:40.145Z,11.82
2023-05-28T07:49:36.351Z,11.93
2023-05-28T07:52:03.747Z,11.68
2023-05-28T07:54:32.331Z,12.05
2023-05-28T07:57:01.541Z,12.70
2023-05-28T07:59:46.714Z,12.32
2023-05-28T08:02:13.854Z,13.48
2023-05-28T08:04:41.095Z,12.80
2023-05-28T08:07:11.287Z,12.85
2023-05-28T08:09:38.719Z,13.73
2023-05-28T08:12:06.032Z,11.80
2023-05-28T08:14:35.238Z,12.35
2023-05-28T08:17:07.719Z,11.35
2023-05-28T08:20:01.667Z,12.20
2023-05-28T08:22:44.748Z,13.45
2023-05-28T08:25:12.265Z,12.98
2023-05-28T08:27:39.878Z,13.60
2023-05-28T08:30:10.110Z,12.77
2023-05-28T08:32:45.169Z,13.18
2023-05-28T08:35:14.152Z,10.95
2023-05-28T08:37:41.456Z,9.18
2023-05-28T08:40:21.105Z,6.50
2023-05-28T08:42:48.564Z,7.10
2023-05-28T08:45:16.149Z,7.78
2023-05-28T08:47:50.099Z,6.38
2023-05-28T08:53:03.160Z,7.30
2023-05-28T08:55:31.440Z,6.65
2023-05-28T08:58:12.284Z,8.70
2023-05-28T09:00:39.865Z,7.97
2023-05-28T09:03:25.880Z,8.95
2023-05-28T09:05:55.511Z,7.55
2023-05-28T09:08:24.568Z,7.90
2023-05-28T09:10:54.391Z,8.07
2023-05-28T09:13:21.897Z,7.25
2023-05-28T09:15:53.088Z,7.63
2023-05-28T09:18:22.279Z,8.48
2023-05-28T09:20:50.993Z,7.97
2023-05-28T09:23:22.818Z,8.20
2023-05-28T09:26:13.630Z,8.45
2023-05-28T09:28:57.173Z,8.52
2023-05-28T09:31:34.938Z,8.90
2023-05-28T09:34:05.773Z,9.05
2023-05-28T09:36:33.088Z,9.35
2023-05-28T09:39:00.279Z,9.32
2023-05-28T09:41:35.222Z,9.45
2023-05-28T09:44:05.730Z,8.88
2023-05-28T09:46:36.759Z,10.32
2023-05-28T09:49:05.332Z,9.82
2023-05-28T09:51:33.721Z,8.98
2023-05-28T09:54:07.586Z,9.52
2023-05-28T09:56:37.365Z,8.52
2023-05-28T09:59:08.740Z,8.90
2023-05-28T10:02:19.538Z,9.15
2023-05-28T10:04:49.477Z,9.55
2023-05-28T10:07:17.378Z,8.80
2023-05-28T10:09:46.220Z,9.00
2023-05-28T10:12:24.272Z,9.93
2023-05-28T10:14:52.443Z,8.68
2023-05-28T10:17:19.712Z,9.15
2023-05-28T10:19:47.488Z,9.43
2023-05-28T10:22:15.709Z,9.60
2023-05-28T10:24:44.412Z,10.02
2023-05-28T10:27:17.892Z,8.75
2023-05-28T10:29:47.065Z,9.63
2023-05-28T10:32:18.107Z,8.88
2023-05-28T10:34:45.950Z,9.65
2023-05-28T10:37:17.364Z,9.82
2023-05-28T10:39:49.444Z,9.50
2023-05-28T10:42:19.004Z,10.30
2023-05-28T10:45:02.852Z,9.32
2023-05-28T10:47:38.031Z,10.43
2023-05-28T10:50:19.114Z,9.15
2023-05-28T10:53:07.471Z,8.68
2023-05-28T10:55:55.815Z,9.00
2023-05-28T10:58:28.290Z,9.07
2023-05-28T11:01:05.273Z,8.18
2023-05-28T11:03:43.185Z,9.63
2023-05-28T11:06:12.038Z,9.63
2023-05-28T11:08:47.078Z,9.13
2023-05-28T11:11:18.998Z,8.82
2023-05-28T11:13:49.239Z,8.73
2023-05-28T11:16:19.347Z,8.48
2023-05-28T11:19:07.106Z,9.95
2023-05-28T11:21:34.766Z,9.55
2023-05-28T11:24:05.847Z,9.35
2023-05-28T11:26:34.173Z,8.43
2023-05-28T11:29:03.069Z,9.20
2023-05-28T11:31:31.974Z,8.20
2023-05-28T11:33:59.304Z,8.45
2023-05-28T11:36:26.666Z,9.43
2023-05-28T11:39:04.014Z,8.10
2023-05-28T11:41:32.447Z,7.95
2023-05-28T11:43:59.654Z,8.65
2023-05-28T11:46:27.097Z,8.88
2023-05-28T11:48:54.296Z,7.50
2023-05-28T11:51:22.111Z,6.93
2023-05-28T11:53:49.459Z,7.00
2023-05-28T11:56:16.649Z,6.90
2023-05-28T11:58:50.170Z,6.53
2023-05-28T12:01:18.515Z,7.15
2023-05-28T12:03:45.855Z,7.30
2023-05-28T12:06:18.398Z,6.28
2023-05-28T12:08:53.015Z,7.30
2023-05-28T12:11:27.324Z,7.85
2023-05-28T12:13:54.553Z,7.28
2023-05-28T12:16:21.631Z,7.07
2023-05-28T12:18:48.765Z,6.53
2023-05-28T12:21:22.357Z,6.20
2023-05-28T12:23:49.754Z,6.20
2023-05-28T12:26:18.390Z,6.65
2023-05-28T12:28:45.588Z,6.28
2023-05-28T12:31:12.750Z,5.82
2023-05-28T12:33:40.798Z,6.65
2023-05-28T12:36:08.385Z,6.15
2023-05-28T12:38:35.696Z,5.78
2023-05-28T12:41:05.632Z,5.90
2023-05-28T12:43:33.379Z,5.85
2023-05-28T12:46:01.022Z,6.82
2023-05-28T12:48:28.102Z,7.90
2023-05-28T12:50:55.439Z,6.22
2023-05-28T12:53:23.855Z,6.60
2023-05-28T12:55:51.075Z,6.93
2023-05-28T12:58:18.408Z,6.50
2023-05-28T13:00:45.708Z,6.28
2023-05-28T13:03:12.904Z,6.97
2023-05-28T13:05:40.194Z,5.47
2023-05-28T13:08:07.640Z,6.25
2023-05-28T13:10:35.119Z,5.63
2023-05-28T13:13:02.288Z,4.97
2023-05-28T13:15:29.477Z,5.72
2023-05-28T13:17:58.571Z,5.95
2023-05-28T13:20:26.934Z,5.13
2023-05-28T13:22:54.140Z,5.93
2023-05-28T13:25:21.497Z,5.95
2023-05-28T13:27:50.299Z,5.43
2023-05-28T13:30:18.750Z,5.15
2023-05-28T13:32:46.068Z,5.88
2023-05-28T13:35:15.370Z,5.20
2023-05-28T13:37:42.432Z,6.00
2023-05-28T13:40:12.976Z,5.80
2023-05-28T13:42:45.446Z,5.90
2023-05-28T13:45:13.464Z,5.38
2023-05-28T13:47:40.984Z,5.78
2023-05-28T13:50:10.399Z,5.38
2023-05-28T13:52:39.660Z,5.40
2023-05-28T13:55:07.332Z,5.70
2023-05-28T13:57:34.443Z,5.10
2023-05-28T14:00:07.445Z,5.57
2023-05-28T14:02:37.895Z,5.47
2023-05-28T14:05:05.812Z,5.45
2023-05-28T14:07:33.057Z,5.50
2023-05-28T14:10:00.260Z,5.45
2023-05-28T14:12:27.579Z,5.57
2023-05-28T14:14:56.285Z,5.75
2023-05-28T14:17:23.475Z,6.03
2023-05-28T14:19:50.551Z,5.28
2023-05-28T14:22:17.788Z,6.35
2023-05-28T14:24:48.441Z,6.75
2023-05-28T14:27:15.708Z,6.72
2023-05-28T14:29:43.012Z,6.35
2023-05-28T14:32:11.184Z,6.78
2023-05-28T14:34:38.780Z,7.30
2023-05-28T14:37:06.098Z,6.45
2023-05-28T14:39:33.296Z,7.10
2023-05-28T14:42:00.703Z,6.85
2023-05-28T14:44:28.256Z,6.80
2023-05-28T14:46:58.079Z,7.25
2023-05-28T14:49:25.804Z,7.38
2023-05-28T14:51:57.520Z,6.63
2023-05-28T14:54:27.395Z,6.80
2023-05-28T14:56:54.718Z,6.28
2023-05-28T14:59:23.296Z,6.55
2023-05-28T15:01:51.804Z,6.47
2023-05-28T15:04:20.505Z,5.35
2023-05-28T15:06:51.327Z,5.95
2023-05-28T15:09:19.585Z,5.50
2023-05-28T15:11:47.138Z,5.60
2023-05-28T15:14:14.625Z,6.05
2023-05-28T15:16:42.037Z,4.93
2023-05-28T15:19:09.149Z,5.78
2023-05-28T15:21:37.010Z,5.38
2023-05-28T15:24:04.595Z,7.05
2023-05-28T15:26:31.877Z,5.88
2023-05-28T15:28:59.611Z,5.47
2023-05-28T15:31:27.852Z,5.22
2023-05-28T15:33:55.306Z,5.82
2023-05-28T15:36:22.918Z,5.50
2023-05-28T15:38:50.533Z,4.78
2023-05-28T15:41:20.673Z,5.30
2023-05-28T15:43:48.096Z,5.18
2023-05-28T15:46:15.672Z,4.85
2023-05-28T15:48:42.733Z,5.25
2023-05-28T15:51:12.356Z,5.65
2023-05-28T15:53:40.201Z,5.95
2023-05-28T15:56:07.749Z,5.28
2023-05-28T15:58:44.525Z,5.15
2023-05-28T16:01:13.620Z,5.38
2023-05-28T16:03:41.497Z,5.20
2023-05-28T16:06:09.687Z,4.93
2023-05-28T16:08:38.226Z,5.80
2023-05-28T16:11:08.484Z,5.38
2023-05-28T16:13:41.382Z,5.88
2023-05-28T16:16:10.935Z,5.97
2023-05-28T16:18:39.340Z,5.88
2023-05-28T16:21:07.987Z,6.50
2023-05-28T16:23:35.314Z,5.85
2023-05-28T16:26:02.913Z,6.18
2023-05-28T16:28:36.537Z,5.78
2023-05-28T16:31:07.345Z,5.20
2023-05-28T16:33:37.403Z,5.53
2023-05-28T16:36:05.133Z,6.30
2023-05-28T16:38:33.516Z,5.38
2023-05-28T16:41:04.043Z,5.20
2023-05-28T16:43:31.645Z,5.95
2023-05-28T16:45:59.902Z,5.95
2023-05-28T16:48:28.035Z,6.00
2023-05-28T16:50:55.056Z,5.90
2023-05-28T16:53:22.278Z,5.78
2023-05-28T16:55:52.047Z,6.00
2023-05-28T16:58:20.084Z,6.05
2023-05-28T17:00:47.668Z,6.10
2023-05-28T17:03:15.931Z,6.78
2023-05-28T17:05:44.330Z,6.50
2023-05-28T17:08:12.479Z,6.38
2023-05-28T17:10:39.680Z,6.40
2023-05-28T17:13:08.196Z,5.35
2023-05-28T17:15:36.814Z,5.00
2023-05-28T17:18:05.046Z,4.85
2023-05-28T17:20:36.708Z,5.53
2023-05-28T17:23:04.400Z,4.47
2023-05-28T17:25:31.668Z,4.32
2023-05-28T17:27:59.888Z,4.50
2023-05-28T17:30:27.115Z,4.72
2023-05-28T17:32:54.319Z,4.68
2023-05-28T17:35:21.536Z,5.10
2023-05-28T17:37:48.690Z,5.20
2023-05-28T17:40:15.954Z,5.07
2023-05-28T17:42:43.246Z,5.00
2023-05-28T17:45:10.703Z,5.97
2023-05-28T17:47:38.201Z,5.82
2023-05-28T17:50:05.993Z,5.80
2023-05-28T17:52:34.039Z,6.40
2023-05-28T17:55:01.278Z,6.50
2023-05-28T17:57:28.765Z,7.10
2023-05-28T17:59:55.984Z,7.18
2023-05-28T18:02:23.529Z,6.22
2023-05-28T18:04:51.269Z,8.95
2023-05-28T18:07:18.332Z,6.63
2023-05-28T18:09:45.592Z,5.75
2023-05-28T18:12:12.717Z,5.50
2023-05-28T18:14:40.005Z,5.90
2023-05-28T18:17:07.236Z,6.78
2023-05-28T18:19:34.499Z,5.88
2023-05-28T18:22:01.587Z,5.70
2023-05-28T18:24:28.885Z,5.90
2023-05-28T18:26:56.100Z,6.15
2023-05-28T18:29:23.581Z,6.50
2023-05-28T18:31:50.795Z,8.70
2023-05-28T18:34:18.157Z,20.63
2023-05-28T18:36:48.408Z,10.40
2023-05-28T18:39:18.134Z,34.33
2023-05-28T18:41:46.889Z,41.78
2023-05-28T18:44:14.415Z,57.55
2023-05-28T18:46:41.715Z,37.40
2023-05-28T18:49:08.963Z,7.45
2023-05-28T18:51:39.306Z,8.52
2023-05-28T18:54:06.368Z,8.13
2023-05-28T18:56:34.059Z,13.35
2023-05-28T18:59:03.394Z,47.45
2023-05-28T19:01:35.461Z,35.40
2023-05-28T19:04:02.886Z,13.00
2023-05-28T19:06:32.088Z,15.30
2023-05-28T19:08:59.274Z,7.35
2023-05-28T19:11:27.005Z,9.73
2023-05-28T19:13:54.095Z,8.38
2023-05-28T19:16:22.358Z,7.03
2023-05-28T19:18:49.435Z,7.50
2023-05-28T19:21:21.266Z,6.28
2023-05-28T19:23:48.533Z,6.93
2023-05-28T19:26:15.825Z,7.07
2023-05-28T19:28:43.205Z,6.95
2023-05-28T19:31:12.984Z,6.88
2023-05-28T19:33:42.879Z,7.35
2023-05-28T19:36:12.142Z,7.70
2023-05-28T19:38:39.402Z,6.63
2023-05-28T19:41:20.530Z,7.20
2023-05-28T19:43:47.745Z,7.72
2023-05-28T19:46:17.956Z,6.88
2023-05-28T19:48:45.387Z,6.20
2023-05-28T19:51:12.712Z,7.32
2023-05-28T19:53:39.972Z,8.40
2023-05-28T19:56:07.265Z,11.65
2023-05-28T19:58:34.508Z,9.48
2023-05-28T20:01:01.720Z,9.60
2023-05-28T20:03:28.883Z,8.73
2023-05-28T20:05:56.106Z,7.82
2023-05-28T20:08:23.315Z,7.65
2023-05-28T20:10:50.789Z,6.75
2023-05-28T20:13:19.341Z,6.43
2023-05-28T20:15:47.731Z,8.30
2023-05-28T20:18:15.065Z,7.60
2023-05-28T20:20:42.842Z,6.28
2023-05-28T20:23:10.219Z,7.72
2023-05-28T20:25:37.250Z,8.40
2023-05-28T20:28:04.537Z,7.70
2023-05-28T20:30:32.000Z,7.38
2023-05-28T20:32:59.719Z,6.85
2023-05-28T20:35:30.137Z,7.63
2023-05-28T20:38:02.569Z,7.38
2023-05-28T20:40:30.636Z,7.40
2023-05-28T20:42:57.787Z,7.55
2023-05-28T20:45:25.032Z,8.10
2023-05-28T20:47:52.249Z,7.78
2023-05-28T20:50:19.838Z,7.40
2023-05-28T20:52:47.013Z,8.07
2023-05-28T20:55:14.749Z,8.02
2023-05-28T20:57:49.920Z,7.30
2023-05-28T21:00:17.813Z,6.68
2023-05-28T21:02:46.567Z,7.15
2023-05-28T21:05:14.063Z,7.20
2023-05-28T21:07:43.139Z,7.13
2023-05-28T21:10:10.958Z,7.57
2023-05-28T21:12:38.104Z,7.40
2023-05-28T21:15:07.890Z,7.70
2023-05-28T21:17:38.016Z,7.63
2023-05-28T21:20:07.904Z,7.63
2023-05-28T21:22:35.678Z,8.25
2023-05-28T21:25:02.778Z,8.93
2023-05-28T21:27:30.852Z,9.18
2023-05-28T21:29:57.886Z,8.57
2023-05-28T21:32:25.052Z,9.00
2023-05-28T21:34:52.362Z,9.95
2023-05-28T21:37:19.432Z,9.30
2023-05-28T21:39:47.060Z,9.52
2023-05-28T21:42:17.798Z,9.43
2023-05-28T21:44:45.516Z,9.18
2023-05-28T21:47:12.675Z,8.70
2023-05-28T21:49:39.871Z,8.68
2023-05-28T21:52:08.478Z,8.07
2023-05-28T21:54:36.107Z,8.50
2023-05-28T21:57:03.234Z,8.23
2023-05-28T21:59:32.243Z,8.38
2023-05-28T22:01:59.348Z,7.95
2023-05-28T22:04:27.001Z,8.07
2023-05-28T22:06:56.773Z,7.90
2023-05-28T22:09:25.205Z,8.68
2023-05-28T22:11:57.300Z,8.25
2023-05-28T22:14:25.064Z,8.53
2023-05-28T22:16:53.910Z,9.52
2023-05-28T22:19:23.569Z,9.85
2023-05-28T22:21:50.888Z,9.95
2023-05-28T22:24:19.739Z,9.88
2023-05-28T22:26:48.049Z,10.65
2023-05-28T22:29:15.172Z,11.68
2023-05-28T22:31:46.193Z,11.23
2023-05-28T22:34:13.362Z,12.00
2023-05-28T22:36:40.604Z,11.07
2023-05-28T22:39:09.004Z,11.10
2023-05-28T22:41:36.014Z,11.40
2023-05-28T22:44:04.020Z,12.23
2023-05-28T22:46:31.343Z,11.30
2023-05-28T22:48:59.109Z,11.30
2023-05-28T22:51:35.784Z,11.90
2023-05-28T22:54:02.791Z,11.43
2023-05-28T22:56:30.300Z,12.65
2023-05-28T22:58:57.507Z,12.23
2023-05-28T23:01:24.781Z,12.93
2023-05-28T23:03:51.894Z,13.05
2023-05-28T23:06:19.168Z,14.68
2023-05-28T23:08:46.436Z,13.82
2023-05-28T23:11:13.580Z,13.63
2023-05-28T23:13:40.907Z,13.07
2023-05-28T23:16:07.976Z,13.07
2023-05-28T23:18:37.421Z,12.68
2023-05-28T23:21:09.309Z,14.57
2023-05-28T23:23:37.043Z,13.25
2023-05-28T23:26:04.375Z,12.00
2023-05-28T23:28:31.455Z,12.00
2023-05-28T23:31:03.322Z,13.68
2023-05-28T23:33:30.990Z,13.00
2023-05-28T23:35:58.050Z,12.70
2023-05-28T23:38:25.318Z,12.23
2023-05-28T23:40:52.562Z,13.27
2023-05-28T23:43:19.652Z,12.60
2023-05-28T23:45:47.832Z,12.20
2023-05-28T23:48:16.273Z,12.45
2023-05-28T23:50:43.414Z,12.38
2023-05-28T23:53:10.480Z,12.90
2023-05-28T23:55:38.221Z,12.15
2023-05-28T23:58:05.544Z,12.55
